Time;durP1;ratioP1;P1;durP2;ratioP2;P2;SDS_P1;SDS_P2;PMS_P1;PMS_P2;Temp;Humidity;BMP_temperature;BMP_pressure;BME280_temperature;BME280_humidity;BME280_pressure;Samples;Min_cycle;Max_cycle;Signal;HPM_P1;HPM_P2
2022/12/09 00:02:03;;;;;;;136.88;74.15;;;;;;;1.51;100.00;98315.73;4280111;82;21052;-90
2022/12/09 00:08:06;;;;;;;165.85;87.42;;;;;;;1.54;100.00;98312.92;4282369;80;21592;-90
2022/12/09 00:14:09;;;;;;;155.40;83.10;;;;;;;1.50;100.00;98314.14;4279978;81;21050;-89
2022/12/09 00:20:11;;;;;;;165.68;88.62;;;;;;;1.53;100.00;98317.52;4281428;81;21083;-89
2022/12/09 00:26:13;;;;;;;177.75;94.47;;;;;;;1.49;100.00;98317.97;4288505;82;21005;-90
2022/12/09 00:32:14;;;;;;;179.57;94.20;;;;;;;1.48;100.00;98319.10;4283395;82;21474;-90
2022/12/09 00:38:16;;;;;;;173.02;90.83;;;;;;;1.47;100.00;98319.44;4278794;82;21055;-89
2022/12/09 00:44:18;;;;;;;172.53;91.17;;;;;;;1.45;100.00;98329.20;4273583;82;21046;-89
2022/12/09 00:50:20;;;;;;;170.38;89.30;;;;;;;1.47;100.00;98334.27;4275926;82;21900;-89
2022/12/09 00:56:23;;;;;;;171.90;88.75;;;;;;;1.49;100.00;98329.31;4279170;82;21946;-89
2022/12/09 01:02:25;;;;;;;159.32;83.72;;;;;;;1.47;100.00;98328.88;4278569;82;21024;-89
2022/12/09 01:08:26;;;;;;;163.57;85.22;;;;;;;1.44;100.00;98341.67;4277464;82;21460;-89
2022/12/09 01:14:28;;;;;;;156.43;78.55;;;;;;;1.40;100.00;98338.05;4288338;82;21438;-89
2022/12/09 01:20:30;;;;;;;162.22;81.70;;;;;;;1.35;100.00;98347.13;4277577;82;21823;-89
2022/12/09 01:26:33;;;;;;;152.27;77.32;;;;;;;1.24;100.00;98339.20;4269067;82;21050;-89
2022/12/09 01:32:34;;;;;;;154.35;72.35;;;;;;;1.25;100.00;98340.01;4285656;82;21012;-89
2022/12/09 01:38:36;;;;;;;138.15;70.62;;;;;;;1.30;100.00;98336.54;4272180;82;21039;-90
2022/12/09 01:44:37;;;;;;;151.53;77.17;;;;;;;1.32;100.00;98343.75;4291395;80;20980;-89
2022/12/09 01:50:56;;;;;;;149.00;75.25;;;;;;;1.38;100.00;98345.67;4281735;82;21001;-89
2022/12/09 01:56:58;;;;;;;141.97;71.82;;;;;;;1.43;100.00;98348.97;4284550;82;21039;-89
2022/12/09 02:03:01;;;;;;;147.00;72.40;;;;;;;1.47;100.00;98335.03;4283244;82;21642;-89
2022/12/09 02:09:02;;;;;;;142.90;70.45;;;;;;;1.52;100.00;98339.44;4280402;81;21033;-91
2022/12/09 02:15:32;;;;;;;145.22;71.12;;;;;;;1.51;100.00;98325.73;4275155;82;21033;-90
2022/12/09 02:21:38;;;;;;;135.85;70.05;;;;;;;1.50;100.00;98316.84;4233047;80;21051;-89
2022/12/09 02:28:08;;;;;;;131.40;67.80;;;;;;;1.51;100.00;98317.64;4258265;82;20996;-89
2022/12/09 02:34:20;;;;;;;138.07;69.62;;;;;;;1.55;100.00;98320.69;4280107;82;20976;-89
2022/12/09 02:40:29;;;;;;;131.90;67.75;;;;;;;1.56;100.00;98309.34;4285320;82;20977;-90
2022/12/09 02:46:34;;;;;;;131.47;63.70;;;;;;;1.55;100.00;98314.52;4283922;82;21826;-90
2022/12/09 02:52:37;;;;;;;117.15;60.95;;;;;;;1.51;100.00;98307.65;4283702;82;21022;-89
2022/12/09 02:58:39;;;;;;;105.43;54.48;;;;;;;1.49;100.00;98312.58;4282885;82;20973;-89
2022/12/09 03:04:46;;;;;;;111.75;58.13;;;;;;;1.47;100.00;98307.30;4279039;82;21060;-89
2022/12/09 03:11:09;;;;;;;110.83;57.62;;;;;;;1.47;100.00;98307.30;4284657;82;20969;-90
2022/12/09 03:17:16;;;;;;;110.75;54.18;;;;;;;1.42;100.00;98308.84;4306954;82;21066;-89
2022/12/09 03:23:29;;;;;;;105.17;53.15;;;;;;;1.31;100.00;98297.69;4280107;82;20975;-89
2022/12/09 03:29:38;;;;;;;104.43;52.88;;;;;;;1.30;100.00;98293.98;4261728;82;21105;-89
2022/12/09 03:35:44;;;;;;;121.30;57.87;;;;;;;1.26;100.00;98286.30;4264443;82;21053;-90
2022/12/09 03:41:57;;;;;;;88.83;46.40;;;;;;;1.27;100.00;98285.97;4268806;82;21039;-90
2022/12/09 03:47:59;;;;;;;126.40;64.75;;;;;;;1.28;100.00;98286.22;4268557;82;22122;-90
2022/12/09 03:54:05;;;;;;;131.22;65.62;;;;;;;1.25;100.00;98282.81;4273067;82;21102;-91
2022/12/09 04:00:08;;;;;;;132.50;69.15;;;;;;;1.22;100.00;98293.48;4295254;82;21041;-89
2022/12/09 04:06:16;;;;;;;129.72;66.15;;;;;;;1.11;100.00;98290.97;4279198;82;21494;-89
2022/12/09 04:12:17;;;;;;;135.18;71.87;;;;;;;1.09;100.00;98292.64;4275975;82;21558;-88
2022/12/09 04:18:19;;;;;;;147.35;74.62;;;;;;;0.99;100.00;98292.23;4321871;79;48605;-88
2022/12/09 04:24:20;;;;;;;114.60;59.70;;;;;;;0.92;100.00;98288.73;4320172;80;22062;-89
2022/12/09 04:30:21;;;;;;;127.58;67.05;;;;;;;0.87;100.00;98292.97;4244377;82;21027;-89
2022/12/09 04:36:23;;;;;;;109.92;57.30;;;;;;;0.82;100.00;98302.59;4242558;82;20997;-89
2022/12/09 04:42:26;;;;;;;144.60;74.50;;;;;;;0.75;100.00;98304.23;4243832;82;21642;-89
2022/12/09 04:48:28;;;;;;;135.00;73.83;;;;;;;0.68;100.00;98296.66;4245560;82;21071;-89
2022/12/09 04:54:31;;;;;;;139.77;72.10;;;;;;;0.57;100.00;98295.47;4183393;83;20962;-89
2022/12/09 05:00:33;;;;;;;166.62;81.70;;;;;;;0.49;100.00;98296.30;4234447;82;21030;-88
2022/12/09 05:06:34;;;;;;;136.15;70.35;;;;;;;0.43;100.00;98292.77;4180919;84;21514;-89
2022/12/09 05:12:35;;;;;;;121.42;60.52;;;;;;;0.28;100.00;98287.96;4182373;84;20985;-88
2022/12/09 05:18:37;;;;;;;110.83;56.02;;;;;;;0.21;100.00;98293.84;4216749;82;21034;-89
2022/12/09 05:24:39;;;;;;;92.20;49.63;;;;;;;0.12;100.00;98288.27;4196872;82;22062;-88
2022/12/09 05:30:53;;;;;;;114.15;58.40;;;;;;;0.05;100.00;98290.69;4269242;82;21003;-87
2022/12/09 05:37:02;;;;;;;103.15;52.48;;;;;;;0.00;100.00;98290.31;4260228;82;20988;-88
2022/12/09 05:43:03;;;;;;;91.47;50.12;;;;;;;-0.18;100.00;98294.97;4255607;82;21565;-88
2022/12/09 05:49:05;;;;;;;106.30;53.28;;;;;;;-0.30;100.00;98296.16;4260491;82;21296;-88
2022/12/09 05:55:09;;;;;;;84.07;43.52;;;;;;;-0.43;100.00;98292.34;4230214;81;21996;-88
2022/12/09 06:01:18;;;;;;;83.62;45.63;;;;;;;-0.57;100.00;98295.22;4212810;81;20962;-88
2022/12/09 06:07:20;;;;;;;89.92;45.05;;;;;;;-0.63;100.00;98291.67;4258898;82;20980;-88
2022/12/09 06:13:21;;;;;;;93.05;46.75;;;;;;;-0.70;100.00;98296.18;4260183;82;21536;-87
2022/12/09 06:19:23;;;;;;;103.32;50.83;;;;;;;-0.78;100.00;98298.31;4256381;82;21983;-88
2022/12/09 06:25:26;;;;;;;97.92;49.50;;;;;;;-0.90;100.00;98296.83;4228213;82;21106;-88
2022/12/09 06:31:28;;;;;;;93.22;48.60;;;;;;;-1.13;100.00;98302.68;4200081;83;21217;-87
2022/12/09 06:37:31;;;;;;;86.02;45.43;;;;;;;-1.13;100.00;98302.68;4195320;83;21651;-87
2022/12/09 06:43:33;;;;;;;89.75;41.83;;;;;;;-1.34;100.00;98305.72;4194811;83;21028;-87
2022/12/09 06:49:34;;;;;;;77.17;40.30;;;;;;;-1.34;100.00;98305.72;4177471;84;20961;-87
2022/12/09 06:55:35;;;;;;;81.05;40.48;;;;;;;-1.45;100.00;98303.91;4217733;82;21015;-87
2022/12/09 07:01:37;;;;;;;160.40;83.40;;;;;;;-1.47;100.00;98305.33;4211474;82;21059;-85
2022/12/09 07:07:38;;;;;;;128.53;68.28;;;;;;;-1.51;100.00;98300.33;4336786;80;21634;-86
2022/12/09 07:13:40;;;;;;;91.32;41.42;;;;;;;-1.48;100.00;98316.61;4254520;82;21593;-85
2022/12/09 07:19:41;;;;;;;88.62;44.18;;;;;;;-1.52;100.00;98294.73;4345060;80;21567;-86
2022/12/09 07:25:42;;;;;;;82.97;41.63;;;;;;;-1.53;100.00;98295.28;4337630;80;21059;-86
2022/12/09 07:31:44;;;;;;;86.43;40.37;;;;;;;-1.53;100.00;98284.54;4337572;80;21058;-86
2022/12/09 07:37:46;;;;;;;293.23;192.62;;;;;;;-1.52;100.00;98267.89;4329527;80;21514;-87
2022/12/09 07:43:47;;;;;;;126.25;63.28;;;;;;;-1.49;100.00;98263.23;4244064;82;21092;-86
2022/12/09 07:49:48;;;;;;;113.22;55.40;;;;;;;-1.26;100.00;98257.95;4347338;80;21578;-86
2022/12/09 07:55:49;;;;;;;101.85;56.18;;;;;;;-1.03;100.00;98257.48;4345685;80;21050;-87
2022/12/09 08:01:51;;;;;;;84.62;41.20;;;;;;;-0.74;100.00;98249.56;4260670;82;20950;-88
2022/12/09 08:07:52;;;;;;;100.35;51.35;;;;;;;-0.59;100.00;98257.11;4339543;80;20967;-88
2022/12/09 08:13:57;;;;;;;154.20;81.50;;;;;;;-0.55;100.00;98243.25;4348618;80;20991;-88
2022/12/09 08:19:59;;;;;;;142.05;77.67;;;;;;;-0.24;100.00;98268.01;4336730;80;21468;-88
2022/12/09 08:26:02;;;;;;;132.30;74.72;;;;;;;0.02;100.00;98267.12;4346748;80;22180;-88
2022/12/09 08:32:03;;;;;;;117.37;65.83;;;;;;;0.57;100.00;98271.78;4313100;80;21945;-88
2022/12/09 08:38:04;;;;;;;102.60;55.73;;;;;;;1.15;100.00;98268.41;4308313;80;20986;-89
2022/12/09 08:44:15;;;;;;;99.10;52.70;;;;;;;1.60;100.00;98261.69;4313191;80;21078;-88
2022/12/09 09:04:30;;;;;;;86.92;41.25;;;;;;;3.64;100.00;98263.84;4225069;82;20985;-88
2022/12/09 09:10:32;;;;;;;86.87;43.53;;;;;;;4.19;100.00;98261.00;4264868;82;21003;-88
2022/12/09 09:16:34;;;;;;;75.97;40.23;;;;;;;4.27;100.00;98251.91;4224750;82;21641;-87
2022/12/09 09:22:35;;;;;;;77.10;39.03;;;;;;;4.53;100.00;98254.84;4266317;82;21030;-88
2022/12/09 09:28:37;;;;;;;67.22;36.42;;;;;;;4.74;100.00;98256.09;4215661;82;21090;-88
2022/12/09 09:34:38;;;;;;;68.02;36.77;;;;;;;4.90;100.00;98253.92;4244762;82;21003;-89
2022/12/09 09:40:41;;;;;;;70.15;38.48;;;;;;;5.19;100.00;98239.78;4178240;83;21081;-88
2022/12/09 09:46:46;;;;;;;68.02;36.70;;;;;;;5.47;100.00;98230.27;4265313;82;20990;-88
2022/12/09 09:52:52;;;;;;;53.42;28.30;;;;;;;5.89;100.00;98239.21;4268334;82;20967;-88
2022/12/09 09:59:22;;;;;;;49.40;26.73;;;;;;;6.23;100.00;98236.10;4265914;81;21039;-89
2022/12/09 10:05:46;;;;;;;44.83;25.35;;;;;;;6.45;100.00;98227.69;4182631;82;21089;-89
2022/12/09 10:12:04;;;;;;;40.38;23.00;;;;;;;6.72;100.00;98216.42;4266970;81;21097;-88
2022/12/09 10:18:26;;;;;;;67.03;36.35;;;;;;;6.81;100.00;98208.80;4222629;82;22040;-88
2022/12/09 10:24:33;;;;;;;46.48;26.93;;;;;;;6.92;100.00;98202.13;4199292;82;21037;-88
2022/12/09 10:30:36;;;;;;;36.93;21.70;;;;;;;7.27;100.00;98196.52;4212974;83;21053;-88
2022/12/09 10:36:40;;;;;;;31.42;17.23;;;;;;;7.28;100.00;98191.27;4322130;81;20987;-89
2022/12/09 10:49:17;;;;;;;31.17;17.77;;;;;;;6.42;100.00;98174.84;4311370;81;20943;-89
2022/12/09 10:55:36;;;;;;;32.25;17.37;;;;;;;6.20;100.00;98176.45;4325478;81;21040;-88
2022/12/09 11:01:52;;;;;;;31.80;17.37;;;;;;;5.99;99.86;98172.63;4332159;81;20995;-89
2022/12/09 11:07:56;;;;;;;31.55;17.90;;;;;;;5.64;99.18;98176.87;4322942;81;21561;-88
2022/12/09 11:13:57;;;;;;;30.32;15.80;;;;;;;5.62;98.26;98175.67;4327231;81;21026;-88
2022/12/09 11:20:21;;;;;;;27.42;13.80;;;;;;;5.52;97.25;98169.47;4325861;81;21050;-89
2022/12/09 11:26:34;;;;;;;21.15;11.40;;;;;;;5.54;97.73;98167.98;4311877;80;21061;-88
2022/12/09 11:32:50;;;;;;;28.55;14.83;;;;;;;5.60;96.80;98176.59;4314277;80;21539;-88
2022/12/09 11:39:11;;;;;;;54.35;20.50;;;;;;;5.39;96.60;98173.48;4299774;80;21006;-88
2022/12/09 11:45:33;;;;;;;25.27;14.53;;;;;;;5.30;96.17;98171.58;4279739;80;21653;-88
2022/12/09 11:51:40;;;;;;;24.75;13.85;;;;;;;5.07;94.92;98162.63;4285245;80;21001;-89
2022/12/09 11:57:56;;;;;;;24.65;12.80;;;;;;;4.84;95.29;98161.20;4297771;80;20956;-90
2022/12/09 12:04:02;;;;;;;19.02;11.48;;;;;;;4.81;95.50;98164.63;4306210;80;20979;-89
2022/12/09 12:10:07;;;;;;;21.63;12.97;;;;;;;4.78;94.73;98145.00;4213539;82;21134;-89
2022/12/09 12:16:51;;;;;;;22.10;11.90;;;;;;;4.63;95.16;98105.20;4263259;82;20987;-88
2022/12/09 12:23:47;;;;;;;20.12;11.50;;;;;;;4.68;94.45;98098.15;4262710;82;20975;-88
2022/12/09 12:30:05;;;;;;;21.37;12.45;;;;;;;4.69;94.56;98091.58;4243576;82;21044;-88
2022/12/09 12:36:19;;;;;;;20.48;11.83;;;;;;;4.72;94.05;98095.72;4245438;82;20983;-88
2022/12/09 12:42:35;;;;;;;21.02;12.98;;;;;;;4.74;94.54;98092.65;4242926;82;20996;-88
2022/12/09 12:49:08;;;;;;;27.93;15.63;;;;;;;4.61;94.08;98088.51;4184496;83;21065;-88
2022/12/09 12:55:47;;;;;;;35.10;18.15;;;;;;;4.65;94.73;98083.95;4226594;82;21038;-88
2022/12/09 13:02:09;;;;;;;28.90;17.10;;;;;;;4.55;94.44;98075.03;4315755;80;21023;-89
2022/12/09 13:08:18;;;;;;;40.28;20.62;;;;;;;4.47;94.47;98066.55;4336935;80;21054;-88
2022/12/09 13:14:30;;;;;;;84.30;35.08;;;;;;;4.47;94.34;98069.25;4328638;80;20973;-89
2022/12/09 13:20:45;;;;;;;82.08;31.93;;;;;;;4.43;94.10;98058.92;4313498;80;21002;-89
2022/12/09 13:27:19;;;;;;;64.25;25.60;;;;;;;4.40;94.08;98052.28;4300288;80;21594;-89
2022/12/09 13:33:36;;;;;;;59.23;27.22;;;;;;;4.41;94.05;98040.31;4251851;82;21058;-88
2022/12/09 13:39:52;;;;;;;41.35;20.02;;;;;;;4.34;93.88;98020.40;4253978;82;21541;-88
2022/12/09 13:45:59;;;;;;;30.68;17.48;;;;;;;4.26;93.64;98014.66;4257583;82;21010;-89
2022/12/09 13:52:01;;;;;;;32.93;18.15;;;;;;;4.17;93.67;98012.70;4231225;82;21002;-87
2022/12/09 13:58:33;;;;;;;35.58;18.70;;;;;;;4.04;93.76;98017.48;4259529;81;20979;-89
2022/12/09 14:04:43;;;;;;;32.85;16.95;;;;;;;3.94;93.93;98003.72;4261478;81;21991;-88
2022/12/09 14:10:48;;;;;;;32.70;18.07;;;;;;;3.82;94.04;98003.86;4253480;82;21472;-89
2022/12/09 14:16:52;;;;;;;28.90;15.63;;;;;;;3.80;94.11;98011.54;4256842;82;20982;-88
2022/12/09 14:23:11;;;;;;;28.77;16.67;;;;;;;3.71;94.21;98020.44;4254178;82;21077;-88
2022/12/09 14:29:49;;;;;;;30.37;16.67;;;;;;;3.66;94.29;98009.88;4311613;80;21668;-89
2022/12/09 14:35:56;;;;;;;33.35;15.18;;;;;;;3.58;94.16;98004.09;4285207;79;21031;-88
2022/12/09 14:42:06;;;;;;;28.95;15.28;;;;;;;3.50;94.07;98009.12;4251840;82;21046;-88
2022/12/09 14:48:11;;;;;;;28.02;15.28;;;;;;;3.43;94.01;98013.03;4345240;80;21296;-87
2022/12/09 14:54:33;;;;;;;28.90;16.02;;;;;;;3.40;94.10;98010.44;4238261;81;20990;-88
2022/12/09 15:00:40;;;;;;;30.68;16.05;;;;;;;3.34;94.25;98009.70;4156511;84;20974;-87
2022/12/09 15:06:41;;;;;;;31.97;16.20;;;;;;;3.27;94.59;98002.79;4174855;84;21004;-87
2022/12/09 15:12:47;;;;;;;33.30;18.10;;;;;;;3.17;94.77;97998.14;4248639;82;20971;-88
2022/12/09 15:18:51;;;;;;;28.80;15.45;;;;;;;3.03;94.95;97992.39;4341133;80;20995;-90
2022/12/09 15:24:53;;;;;;;23.67;13.58;;;;;;;2.86;94.94;97985.19;4253777;82;21038;-89
2022/12/09 15:31:06;;;;;;;22.50;11.30;;;;;;;2.67;95.40;97982.38;4339499;80;21071;-88
2022/12/09 15:37:07;;;;;;;21.12;12.25;;;;;;;2.49;95.51;97965.70;4346887;80;21061;-91
2022/12/09 15:43:10;;;;;;;24.25;12.88;;;;;;;2.30;96.12;97958.06;4351942;80;22361;-89
2022/12/09 15:49:16;;;;;;;32.13;16.00;;;;;;;2.13;96.46;97959.73;4343367;80;21523;-89
2022/12/09 15:55:24;;;;;;;28.57;16.70;;;;;;;1.96;96.93;97945.18;4327033;80;21051;-90
2022/12/09 16:01:32;;;;;;;35.50;16.73;;;;;;;1.78;97.44;97936.59;4334197;80;21027;-88
2022/12/09 16:07:34;;;;;;;34.45;18.50;;;;;;;1.61;97.77;97928.78;4233276;82;21103;-88
2022/12/09 16:13:51;;;;;;;32.55;18.32;;;;;;;1.39;97.85;97915.21;4348561;80;22008;-89
2022/12/09 16:19:53;;;;;;;37.85;19.48;;;;;;;1.23;98.50;97892.80;4338045;80;21646;-89
2022/12/09 16:25:59;;;;;;;37.33;19.12;;;;;;;1.12;99.12;97889.55;4347784;80;22119;-89
2022/12/09 16:32:32;;;;;;;34.40;20.35;;;;;;;1.09;99.71;97880.80;4282365;80;21100;-89
2022/12/09 16:38:35;;;;;;;39.78;20.97;;;;;;;1.01;99.90;97876.32;4315501;80;22111;-88
2022/12/09 16:44:45;;;;;;;37.95;20.55;;;;;;;0.89;100.00;97858.84;4305527;80;21576;-88
2022/12/09 16:51:13;;;;;;;45.80;23.35;;;;;;;0.78;100.00;97846.95;4292122;80;21089;-89
2022/12/09 16:57:18;;;;;;;50.45;26.57;;;;;;;0.75;100.00;97844.35;4307590;80;21027;-89
2022/12/09 17:03:46;;;;;;;49.40;25.75;;;;;;;0.70;100.00;97833.03;4309089;80;21041;-88
2022/12/09 17:09:47;;;;;;;49.48;26.50;;;;;;;0.65;100.00;97834.05;4306874;80;21042;-88
2022/12/09 17:15:50;;;;;;;47.40;27.70;;;;;;;0.61;100.00;97834.48;4305392;80;22070;-87
2022/12/09 17:21:54;;;;;;;46.18;24.67;;;;;;;0.56;100.00;97840.67;4306631;80;21482;-90
2022/12/09 17:27:55;;;;;;;47.53;25.40;;;;;;;0.48;100.00;97828.11;4305059;80;21006;-89
2022/12/09 17:34:23;;;;;;;42.98;23.38;;;;;;;0.46;100.00;97824.95;4307877;81;21025;-89
2022/12/09 17:40:23;;;;;;;41.30;22.50;;;;;;;0.43;100.00;97826.98;4227014;82;21629;-89
2022/12/09 17:46:24;;;;;;;40.65;22.40;;;;;;;0.40;100.00;97823.62;4261181;82;21076;-90
2022/12/09 17:52:40;;;;;;;37.05;21.52;;;;;;;0.37;100.00;97805.45;4302551;79;21066;-91
2022/12/09 17:58:43;;;;;;;33.43;17.83;;;;;;;0.34;100.00;97806.92;4172200;80;10000068;-90
2022/12/09 18:04:44;;;;;;;41.60;22.65;;;;;;;0.31;100.00;97808.14;4289827;80;21033;-90
2022/12/09 18:10:46;;;;;;;40.35;21.57;;;;;;;0.30;100.00;97796.58;4307722;80;21005;-89
2022/12/09 18:16:48;;;;;;;45.10;23.35;;;;;;;0.30;100.00;97793.13;4308911;80;20982;-89
2022/12/09 18:22:49;;;;;;;43.65;22.17;;;;;;;0.27;100.00;97782.45;4296768;80;21985;-89
2022/12/09 18:28:55;;;;;;;36.60;21.77;;;;;;;0.25;100.00;97779.89;4292742;81;21030;-90
2022/12/09 18:34:58;;;;;;;34.88;21.17;;;;;;;0.24;100.00;97779.09;4309456;80;21095;-89
2022/12/09 18:41:02;;;;;;;37.88;21.20;;;;;;;0.23;100.00;97768.66;4284493;80;21054;-89
2022/12/09 18:47:06;;;;;;;55.95;28.77;;;;;;;0.22;100.00;97759.80;4308063;80;20993;-89
2022/12/09 18:53:09;;;;;;;40.77;21.87;;;;;;;0.22;100.00;97756.34;4309952;80;21018;-87
2022/12/09 18:59:11;;;;;;;49.80;27.62;;;;;;;0.23;100.00;97754.66;4307717;80;21505;-87
2022/12/09 19:05:12;;;;;;;55.40;27.75;;;;;;;0.25;100.00;97738.94;4307255;80;21046;-87
2022/12/09 19:11:14;;;;;;;42.75;25.25;;;;;;;0.25;100.00;97741.62;4314222;80;21046;-87
2022/12/09 19:17:17;;;;;;;42.75;23.42;;;;;;;0.23;100.00;97726.95;4302407;80;21538;-88
2022/12/09 19:23:19;;;;;;;42.62;24.10;;;;;;;0.25;100.00;97729.52;4279668;80;21006;-89
2022/12/09 19:29:23;;;;;;;53.87;27.27;;;;;;;0.24;100.00;97719.09;4272094;80;21640;-88
2022/12/09 19:35:24;;;;;;;45.98;26.10;;;;;;;0.23;100.00;97708.91;4258581;82;21095;-86
2022/12/09 19:41:27;;;;;;;47.88;25.40;;;;;;;0.24;100.00;97706.98;4260870;82;21089;-89
2022/12/09 19:47:31;;;;;;;51.75;27.55;;;;;;;0.23;100.00;97700.03;4261373;82;21019;-88
2022/12/09 19:53:36;;;;;;;45.35;25.80;;;;;;;0.24;100.00;97704.28;4261728;82;21004;-88
2022/12/09 19:59:50;;;;;;;52.53;26.17;;;;;;;0.22;100.00;97690.41;4229701;82;21050;-88
2022/12/09 20:05:54;;;;;;;60.78;28.25;;;;;;;0.22;100.00;97697.13;4262841;82;21049;-87
2022/12/09 20:11:57;;;;;;;44.70;24.27;;;;;;;0.23;100.00;97702.73;4262850;81;21905;-87
2022/12/09 20:17:59;;;;;;;42.15;23.98;;;;;;;0.24;100.00;97709.12;4260958;82;21034;-89
2022/12/09 20:24:05;;;;;;;41.50;23.73;;;;;;;0.26;100.00;97700.16;4262178;81;21059;-87
2022/12/09 20:30:08;;;;;;;41.88;24.15;;;;;;;0.25;100.00;97682.41;4277738;80;21032;-87
2022/12/09 20:36:17;;;;;;;46.23;26.10;;;;;;;0.23;100.00;97678.50;4308713;80;20967;-88
2022/12/09 20:42:22;;;;;;;47.65;26.12;;;;;;;0.22;100.00;97674.25;4291482;80;21058;-88
2022/12/09 20:48:23;;;;;;;46.53;25.80;;;;;;;0.23;100.00;97678.50;4287634;80;20986;-87
2022/12/09 20:54:24;;;;;;;44.63;23.32;;;;;;;0.23;100.00;97671.22;4297286;80;20962;-88
2022/12/09 21:00:30;;;;;;;44.70;24.35;;;;;;;0.25;100.00;97668.19;4304624;80;21974;-88
2022/12/09 21:06:39;;;;;;;64.05;28.57;;;;;;;0.25;100.00;97662.81;4301434;80;20991;-88
2022/12/09 21:12:41;;;;;;;47.95;25.10;;;;;;;0.24;100.00;97661.22;4218404;82;22009;-88
2022/12/09 21:18:45;;;;;;;37.75;20.30;;;;;;;0.24;100.00;97667.40;4217616;82;21029;-89
2022/12/09 21:24:47;;;;;;;33.55;20.43;;;;;;;0.24;100.00;97676.82;4271291;81;20991;-88
2022/12/09 21:30:55;;;;;;;37.45;20.08;;;;;;;0.23;100.00;97665.84;4246665;82;21071;-88
2022/12/09 21:37:04;;;;;;;39.65;20.65;;;;;;;0.21;100.00;97669.42;4224315;82;21103;-88
2022/12/09 21:43:02;;;;;;;38.73;20.12;;;;;;;0.21;100.00;97664.05;4221779;82;21055;-90
2022/12/09 21:49:05;;;;;;;36.70;20.32;;;;;;;0.22;100.00;97654.07;4230795;82;21091;-89
2022/12/09 21:55:10;;;;;;;34.70;19.48;;;;;;;0.23;100.00;97662.36;4229623;82;21123;-91
2022/12/09 22:01:25;;;;;;;34.58;21.12;;;;;;;0.25;100.00;97668.19;4220217;82;21127;-89
2022/12/09 22:07:28;;;;;;;34.58;20.40;;;;;;;0.24;100.00;97664.70;4295897;80;21939;-90
2022/12/09 22:13:37;;;;;;;40.35;23.05;;;;;;;0.27;100.00;97670.76;4301629;80;20981;-89
2022/12/09 22:19:42;;;;;;;43.25;23.95;;;;;;;0.29;100.00;97657.75;4280078;80;21090;-89
2022/12/09 22:25:53;;;;;;;40.20;23.75;;;;;;;0.29;100.00;97648.33;4308609;80;20998;-90
2022/12/09 22:31:53;;;;;;;46.13;24.37;;;;;;;0.30;100.00;97653.16;4272671;80;21818;-91
2022/12/09 22:37:59;;;;;;;35.48;20.70;;;;;;;0.30;100.00;97641.05;4262775;82;21003;-90
2022/12/09 22:44:06;;;;;;;36.15;21.17;;;;;;;0.31;100.00;97640.70;4269091;81;21524;-89
2022/12/09 22:50:16;;;;;;;32.70;19.48;;;;;;;0.32;100.00;97638.78;4265514;82;20995;-90
2022/12/09 22:56:20;;;;;;;38.10;20.90;;;;;;;0.32;100.00;97632.84;4267339;82;21000;-89
2022/12/09 23:02:22;;;;;;;31.65;19.17;;;;;;;0.33;100.00;97626.33;4264120;82;20975;-90
2022/12/09 23:08:27;;;;;;;27.87;17.65;;;;;;;0.35;100.00;97631.36;4264097;82;21015;-88
2022/12/09 23:14:29;;;;;;;30.10;17.80;;;;;;;0.38;100.00;97619.91;4267889;82;21500;-89
2022/12/09 23:20:31;;;;;;;31.05;18.27;;;;;;;0.39;100.00;97625.54;4268983;82;20979;-88
2022/12/09 23:26:38;;;;;;;29.82;18.40;;;;;;;0.39;100.00;97619.60;4266079;82;22236;-90
2022/12/09 23:32:48;;;;;;;29.37;18.25;;;;;;;0.40;100.00;97625.20;4225159;82;21008;-90
2022/12/09 23:38:51;;;;;;;30.55;18.92;;;;;;;0.40;100.00;97621.71;4235331;82;20938;-90
2022/12/09 23:44:52;;;;;;;32.48;19.77;;;;;;;0.39;100.00;97617.46;4235497;82;21974;-89
2022/12/09 23:50:54;;;;;;;27.93;17.42;;;;;;;0.38;100.00;97609.14;4254445;81;20962;-88
2022/12/09 23:56:56;;;;;;;24.95;16.27;;;;;;;0.36;100.00;97608.14;4225975;82;21056;-89
